Wednesday, October 01, 2014
20:25 UTC
  |  Log In   |  Register Free
Airport Search:

Raleigh-Durham International Airport
(KRDU)

Airport information sponsored by:
Landmark Aviation - RDU at Raleigh-Durham International (KRDU), Raleigh/Durham, NC
FAA data valid effective September 18, 2014 - November 13, 2014 (unless otherwise noted).

 
 
 
 
 
 
 
 
 
 
 
 
 
 

Current Aviation Weather for Raleigh-Durham International Airport (KRDU)

The most recent METAR observation for KRDU was updated at: 2014
METAR Summary (Translated METAR)
KRDU
011951Z 00000KT 10SM SCT031 BKN250 26/16 A3000 RMK AO2 SLP154 T02560161
KIGX
011956Z AUTO 00000KT 10SM BKN027 24/17 A3001 RMK AO2 SLP157 T02440167 TSNO
(14 nm NW from KRDU)
KTTA
011955Z AUTO 00000KT 10SM CLR 25/18 A2999 RMK AO2 T02470179
(23.4 nm SW from KRDU)
TAF Summary (Translated TAF)
KRDU
011738Z 0118/0218 VRB03KT P6SM BKN025 TEMPO 0118/0120 SCT025 FM012000 00000KT P6SM SCT025 TEMPO 0208/0212 3SM BR SCT002
  Airport Weather Conditions for KRDU

 Current Weather at RDU
78° F
Mostly Cloudy
North winds at 0.0 mph
RDU NOAA Radar

Pressure: 30.00 in
Humidity: 56%
Wind: Calm
Dew Point: 61.0°F
Visibility: 10.00 mi


Airport Weather Forecast for KRDU

Translated METAR and TAF for KRDU
Translated METAR for KRDU (2019 UTC 01 October 2014)
found at http://aviationweather.gov/adds/metars/
 
METAR text: KRDU 011951Z 00000KT 10SM SCT031 BKN250 26/16 A3000 RMK AO2 SLP154 T02560161
Conditions at: KRDU (RALEIGH/DURHAM , NC, US) observed 1951 UTC 01 October 2014
Temperature: 25.6°C (78°F)
Dewpoint: 16.1°C (61°F) [RH = 56%]
Pressure (altimeter): 30.00 inches Hg (1016.0 mb)
[Sea-level pressure: 1015.4 mb]
Winds: calm
Visibility: 10 or more miles (16+ km)
Ceiling: 25000 feet AGL
Clouds: scattered clouds at 3100 feet AGL
broken clouds at 25000 feet AGL
Weather: no significant weather observed at this time
Translated TAF for KRDU
Forecast for: KRDU (RALEIGH/DURHAM , NC, US)
TAF Text: KRDU 011738Z 0118/0218 VRB03KT P6SM BKN025
Forecast period: 1800 to 2000 UTC 01 October 2014
Forecast type: FROM: standard forecast or significant change
Winds: variable direction winds at 3 MPH (3 knots; 1.6 m/s)
Visibility: 6 or more miles (10+ km)
Ceiling: 2500 feet AGL
Clouds: broken clouds at 2500 feet AGL
Weather: no significant weather forecast for this period
TAF Text: TEMPO 0118/0120 SCT025
Forecast period: 1800 to 2000 UTC 01 October 2014
Forecast type: TEMPORARY: The following changes expected for less than half the time period
Clouds: scattered clouds at 2500 feet AGL
Weather: no significant weather forecast for this period
TAF Text: FM012000 00000KT P6SM SCT025
Forecast period: 2000 UTC 01 October 2014 to 1800 UTC 02 October 2014
Forecast type: FROM: standard forecast or significant change
Winds: calm
Visibility: 6 or more miles (10+ km)
Clouds: scattered clouds at 2500 feet AGL
Weather: no significant weather forecast for this period
TAF Text: TEMPO 0208/0212 3SM BR SCT002
Forecast period: 0800 to 1200 UTC 02 October 2014
Forecast type: TEMPORARY: The following changes expected for less than half the time period
Visibility: 3 miles (5 km)
Clouds: scattered clouds at 200 feet AGL
Weather: BR  (mist)

Find All Airport Services Find A Hotel Find A Rental Car Find A Golf Course Find A Restaurant $100 Hamburger



FBO's on the Field
FBO Company Facility Photos Services Transportation Aviation Fuel Prices: Prices include tax
Catering Weather Repair Courtesy Rental Type 100LL JetA JetA+ MOGAS 8087
 
Landmark Aviation - RDU

Landmark Aviation - RDU logo
Currently rated 4.4 by 2 people
FS:
Last Updated: Oct-01
Login to update fuel prices
SS:
Contact Landmark Aviation - RDUMore FBO Information
 
Tac Air - RDU

Currently rated 1.8 by 3 people
FS:Avfuel
Last Updated: Sep-19
Login to update fuel prices
SS:
Contact Tac Air - RDUMore FBO Information
 
Add another FBO Facility Photos Catering Weather Repair Courtesy Rental Type 100LL JetA JetA+ MOGAS 8087
Services Transportation Aviation Fuel Prices: Prices include tax


model-print
model-print
model-print
model-print